sensor_id;sensor_type;location;lat;lon;timestamp;temperature;humidity
72883;DHT22;61017;37.812;-122.286;2022-12-08T00:01:18;16.50;80.20
72883;DHT22;61017;37.812;-122.286;2022-12-08T00:03:08;16.50;80.00
72883;DHT22;61017;37.812;-122.286;2022-12-08T00:04:58;16.50;80.10
72883;DHT22;61017;37.812;-122.286;2022-12-08T00:06:48;16.50;80.10
72883;DHT22;61017;37.812;-122.286;2022-12-08T00:08:38;16.50;80.10
72883;DHT22;61017;37.812;-122.286;2022-12-08T00:10:30;16.50;80.10
72883;DHT22;61017;37.812;-122.286;2022-12-08T00:12:20;16.50;80.10
72883;DHT22;61017;37.812;-122.286;2022-12-08T00:14:10;16.50;80.00
72883;DHT22;61017;37.812;-122.286;2022-12-08T00:16:00;16.50;80.00
72883;DHT22;61017;37.812;-122.286;2022-12-08T00:17:50;16.50;80.00
72883;DHT22;61017;37.812;-122.286;2022-12-08T00:19:40;16.50;80.00
72883;DHT22;61017;37.812;-122.286;2022-12-08T00:21:31;16.50;80.00
72883;DHT22;61017;37.812;-122.286;2022-12-08T00:23:22;16.50;80.00
72883;DHT22;61017;37.812;-122.286;2022-12-08T00:25:12;16.50;79.80
72883;DHT22;61017;37.812;-122.286;2022-12-08T00:27:03;16.50;79.80
72883;DHT22;61017;37.812;-122.286;2022-12-08T00:28:53;16.50;79.70
72883;DHT22;61017;37.812;-122.286;2022-12-08T00:30:43;16.50;79.70
72883;DHT22;61017;37.812;-122.286;2022-12-08T00:32:33;16.50;79.80
72883;DHT22;61017;37.812;-122.286;2022-12-08T00:34:23;16.50;79.90
72883;DHT22;61017;37.812;-122.286;2022-12-08T00:36:14;16.50;80.10
72883;DHT22;61017;37.812;-122.286;2022-12-08T00:38:04;16.50;80.10
72883;DHT22;61017;37.812;-122.286;2022-12-08T00:39:54;16.50;80.10
72883;DHT22;61017;37.812;-122.286;2022-12-08T00:41:44;16.60;80.30
72883;DHT22;61017;37.812;-122.286;2022-12-08T00:43:34;16.50;80.20
72883;DHT22;61017;37.812;-122.286;2022-12-08T00:45:24;16.50;80.20
72883;DHT22;61017;37.812;-122.286;2022-12-08T00:47:14;16.60;80.40
72883;DHT22;61017;37.812;-122.286;2022-12-08T00:49:05;16.60;80.50
72883;DHT22;61017;37.812;-122.286;2022-12-08T00:50:55;16.60;80.60
72883;DHT22;61017;37.812;-122.286;2022-12-08T00:52:45;16.60;80.70
72883;DHT22;61017;37.812;-122.286;2022-12-08T00:54:35;16.60;80.60
72883;DHT22;61017;37.812;-122.286;2022-12-08T00:56:25;16.60;81.40
72883;DHT22;61017;37.812;-122.286;2022-12-08T00:58:16;16.60;80.70
72883;DHT22;61017;37.812;-122.286;2022-12-08T01:00:06;16.60;80.70
72883;DHT22;61017;37.812;-122.286;2022-12-08T01:01:57;16.60;80.90
72883;DHT22;61017;37.812;-122.286;2022-12-08T01:03:47;16.60;80.90
72883;DHT22;61017;37.812;-122.286;2022-12-08T01:05:37;16.60;80.80
72883;DHT22;61017;37.812;-122.286;2022-12-08T01:07:27;16.60;80.90
72883;DHT22;61017;37.812;-122.286;2022-12-08T01:09:17;16.60;81.00
72883;DHT22;61017;37.812;-122.286;2022-12-08T01:11:13;16.60;81.00
72883;DHT22;61017;37.812;-122.286;2022-12-08T01:13:04;16.60;81.00
72883;DHT22;61017;37.812;-122.286;2022-12-08T01:14:54;16.60;81.10
72883;DHT22;61017;37.812;-122.286;2022-12-08T01:16:45;16.60;81.10
72883;DHT22;61017;37.812;-122.286;2022-12-08T01:18:36;16.60;81.30
72883;DHT22;61017;37.812;-122.286;2022-12-08T01:20:26;16.60;81.40
72883;DHT22;61017;37.812;-122.286;2022-12-08T01:22:16;16.60;81.30
72883;DHT22;61017;37.812;-122.286;2022-12-08T01:24:09;16.60;81.30
72883;DHT22;61017;37.812;-122.286;2022-12-08T01:26:07;16.60;81.30
72883;DHT22;61017;37.812;-122.286;2022-12-08T01:27:57;16.60;81.30
72883;DHT22;61017;37.812;-122.286;2022-12-08T01:29:47;16.60;81.30
72883;DHT22;61017;37.812;-122.286;2022-12-08T01:31:37;16.60;81.30
72883;DHT22;61017;37.812;-122.286;2022-12-08T01:33:28;16.70;81.30
72883;DHT22;61017;37.812;-122.286;2022-12-08T01:35:18;16.60;81.20
72883;DHT22;61017;37.812;-122.286;2022-12-08T01:37:09;16.70;81.20
72883;DHT22;61017;37.812;-122.286;2022-12-08T01:39:00;16.70;81.10
72883;DHT22;61017;37.812;-122.286;2022-12-08T01:40:56;16.70;81.10
72883;DHT22;61017;37.812;-122.286;2022-12-08T01:42:46;16.70;81.10
72883;DHT22;61017;37.812;-122.286;2022-12-08T01:46:28;16.70;81.10
72883;DHT22;61017;37.812;-122.286;2022-12-08T01:48:25;16.70;81.00
72883;DHT22;61017;37.812;-122.286;2022-12-08T01:50:17;16.70;81.00
72883;DHT22;61017;37.812;-122.286;2022-12-08T01:52:34;16.70;81.00
72883;DHT22;61017;37.812;-122.286;2022-12-08T01:54:24;16.70;80.90
72883;DHT22;61017;37.812;-122.286;2022-12-08T01:56:23;16.70;80.90
72883;DHT22;61017;37.812;-122.286;2022-12-08T01:58:42;16.70;80.90
72883;DHT22;61017;37.812;-122.286;2022-12-08T02:00:33;16.70;80.90
72883;DHT22;61017;37.812;-122.286;2022-12-08T02:02:30;16.70;80.80
72883;DHT22;61017;37.812;-122.286;2022-12-08T02:04:21;16.70;80.80
72883;DHT22;61017;37.812;-122.286;2022-12-08T02:06:12;16.70;80.80
72883;DHT22;61017;37.812;-122.286;2022-12-08T02:08:06;16.70;80.80
72883;DHT22;61017;37.812;-122.286;2022-12-08T02:09:57;16.70;81.50
72883;DHT22;61017;37.812;-122.286;2022-12-08T02:11:48;16.70;80.70
72883;DHT22;61017;37.812;-122.286;2022-12-08T02:13:39;16.70;80.80
72883;DHT22;61017;37.812;-122.286;2022-12-08T02:15:43;16.70;80.60
72883;DHT22;61017;37.812;-122.286;2022-12-08T02:24:38;16.70;80.50
72883;DHT22;61017;37.812;-122.286;2022-12-08T02:29:16;16.70;80.40
72883;DHT22;61017;37.812;-122.286;2022-12-08T02:31:41;16.70;80.20
72883;DHT22;61017;37.812;-122.286;2022-12-08T02:35:43;16.70;80.20
72883;DHT22;61017;37.812;-122.286;2022-12-08T02:37:49;16.70;79.60
72883;DHT22;61017;37.812;-122.286;2022-12-08T02:40:00;16.70;80.10
72883;DHT22;61017;37.812;-122.286;2022-12-08T02:42:07;16.70;80.70
72883;DHT22;61017;37.812;-122.286;2022-12-08T02:44:08;16.80;80.70
72883;DHT22;61017;37.812;-122.286;2022-12-08T02:46:10;16.80;80.90
72883;DHT22;61017;37.812;-122.286;2022-12-08T02:48:04;16.80;80.70
72883;DHT22;61017;37.812;-122.286;2022-12-08T02:49:55;16.80;80.60
72883;DHT22;61017;37.812;-122.286;2022-12-08T02:51:45;16.80;80.50
72883;DHT22;61017;37.812;-122.286;2022-12-08T02:53:35;16.80;80.50
72883;DHT22;61017;37.812;-122.286;2022-12-08T02:55:28;16.80;80.40
72883;DHT22;61017;37.812;-122.286;2022-12-08T03:00:06;16.80;80.30
72883;DHT22;61017;37.812;-122.286;2022-12-08T03:02:07;16.80;80.20
72883;DHT22;61017;37.812;-122.286;2022-12-08T03:08:12;16.90;80.00
72883;DHT22;61017;37.812;-122.286;2022-12-08T03:10:24;16.90;80.00
72883;DHT22;61017;37.812;-122.286;2022-12-08T03:13:08;16.90;80.00
72883;DHT22;61017;37.812;-122.286;2022-12-08T03:14:48;16.90;79.90
72883;DHT22;61017;37.812;-122.286;2022-12-08T03:16:42;16.90;80.30
72883;DHT22;61017;37.812;-122.286;2022-12-08T03:18:37;17.00;80.30
72883;DHT22;61017;37.812;-122.286;2022-12-08T05:25:23;16.60;82.70
72883;DHT22;61017;37.812;-122.286;2022-12-08T05:27:13;16.60;83.50
72883;DHT22;61017;37.812;-122.286;2022-12-08T05:29:03;16.60;83.20
72883;DHT22;61017;37.812;-122.286;2022-12-08T05:30:54;16.70;83.40
72883;DHT22;61017;37.812;-122.286;2022-12-08T05:32:44;16.70;83.50
72883;DHT22;61017;37.812;-122.286;2022-12-08T05:35:07;16.70;82.10
72883;DHT22;61017;37.812;-122.286;2022-12-08T05:38:30;16.80;82.60
72883;DHT22;61017;37.812;-122.286;2022-12-08T05:40:20;16.80;82.80
72883;DHT22;61017;37.812;-122.286;2022-12-08T05:42:11;16.80;83.00
72883;DHT22;61017;37.812;-122.286;2022-12-08T05:44:01;16.80;83.10
72883;DHT22;61017;37.812;-122.286;2022-12-08T05:45:51;16.80;82.90
72883;DHT22;61017;37.812;-122.286;2022-12-08T05:47:42;16.90;82.80
72883;DHT22;61017;37.812;-122.286;2022-12-08T05:49:32;16.90;82.90
72883;DHT22;61017;37.812;-122.286;2022-12-08T05:51:23;16.90;82.80
72883;DHT22;61017;37.812;-122.286;2022-12-08T05:53:18;16.90;82.90
72883;DHT22;61017;37.812;-122.286;2022-12-08T05:55:08;16.90;82.90
72883;DHT22;61017;37.812;-122.286;2022-12-08T05:56:59;16.80;82.90
72883;DHT22;61017;37.812;-122.286;2022-12-08T05:58:50;16.80;83.00
72883;DHT22;61017;37.812;-122.286;2022-12-08T06:00:40;16.80;83.00
72883;DHT22;61017;37.812;-122.286;2022-12-08T06:02:30;16.80;83.10
72883;DHT22;61017;37.812;-122.286;2022-12-08T06:04:20;16.80;83.10
72883;DHT22;61017;37.812;-122.286;2022-12-08T06:06:10;16.80;83.00
72883;DHT22;61017;37.812;-122.286;2022-12-08T06:08:00;16.80;83.00
72883;DHT22;61017;37.812;-122.286;2022-12-08T06:09:50;16.80;83.00
72883;DHT22;61017;37.812;-122.286;2022-12-08T06:11:41;16.80;82.70
72883;DHT22;61017;37.812;-122.286;2022-12-08T06:13:31;16.80;82.60
72883;DHT22;61017;37.812;-122.286;2022-12-08T06:15:21;16.80;82.30
72883;DHT22;61017;37.812;-122.286;2022-12-08T06:17:13;16.80;82.10
72883;DHT22;61017;37.812;-122.286;2022-12-08T06:19:03;16.80;82.10
72883;DHT22;61017;37.812;-122.286;2022-12-08T06:21:07;16.90;82.00
72883;DHT22;61017;37.812;-122.286;2022-12-08T06:22:58;16.90;81.90
72883;DHT22;61017;37.812;-122.286;2022-12-08T06:24:48;16.90;81.80
72883;DHT22;61017;37.812;-122.286;2022-12-08T06:26:40;16.90;81.80
72883;DHT22;61017;37.812;-122.286;2022-12-08T06:28:31;16.90;81.70
72883;DHT22;61017;37.812;-122.286;2022-12-08T06:30:21;16.90;81.90
72883;DHT22;61017;37.812;-122.286;2022-12-08T06:32:11;16.90;82.00
72883;DHT22;61017;37.812;-122.286;2022-12-08T06:34:03;16.90;81.70
72883;DHT22;61017;37.812;-122.286;2022-12-08T06:35:55;16.80;81.40
72883;DHT22;61017;37.812;-122.286;2022-12-08T06:37:47;16.80;81.30
72883;DHT22;61017;37.812;-122.286;2022-12-08T06:39:37;16.80;81.30
72883;DHT22;61017;37.812;-122.286;2022-12-08T06:41:27;16.80;81.30
72883;DHT22;61017;37.812;-122.286;2022-12-08T06:43:18;16.80;81.50
72883;DHT22;61017;37.812;-122.286;2022-12-08T06:45:09;16.80;81.60
72883;DHT22;61017;37.812;-122.286;2022-12-08T06:47:00;16.80;81.70
72883;DHT22;61017;37.812;-122.286;2022-12-08T06:48:50;16.80;81.80
72883;DHT22;61017;37.812;-122.286;2022-12-08T06:50:40;16.80;81.40
72883;DHT22;61017;37.812;-122.286;2022-12-08T06:52:33;16.80;81.50
72883;DHT22;61017;37.812;-122.286;2022-12-08T06:54:23;16.80;81.30
72883;DHT22;61017;37.812;-122.286;2022-12-08T06:56:14;16.80;81.30
72883;DHT22;61017;37.812;-122.286;2022-12-08T06:58:04;16.80;81.20
72883;DHT22;61017;37.812;-122.286;2022-12-08T06:59:55;16.80;81.10
72883;DHT22;61017;37.812;-122.286;2022-12-08T07:01:45;16.80;80.90
72883;DHT22;61017;37.812;-122.286;2022-12-08T07:03:36;16.80;80.90
72883;DHT22;61017;37.812;-122.286;2022-12-08T07:05:26;16.80;80.70
72883;DHT22;61017;37.812;-122.286;2022-12-08T07:07:18;16.80;80.60
72883;DHT22;61017;37.812;-122.286;2022-12-08T07:09:11;16.80;80.60
72883;DHT22;61017;37.812;-122.286;2022-12-08T07:11:09;16.80;80.40
72883;DHT22;61017;37.812;-122.286;2022-12-08T07:13:01;16.80;80.30
72883;DHT22;61017;37.812;-122.286;2022-12-08T07:14:51;16.80;80.20
72883;DHT22;61017;37.812;-122.286;2022-12-08T07:16:42;16.80;80.00
72883;DHT22;61017;37.812;-122.286;2022-12-08T07:18:33;16.80;80.00
72883;DHT22;61017;37.812;-122.286;2022-12-08T07:20:24;16.70;79.70
72883;DHT22;61017;37.812;-122.286;2022-12-08T07:22:14;16.70;79.80
72883;DHT22;61017;37.812;-122.286;2022-12-08T07:24:05;16.70;79.60
72883;DHT22;61017;37.812;-122.286;2022-12-08T07:25:54;16.70;79.60
72883;DHT22;61017;37.812;-122.286;2022-12-08T07:27:45;16.70;79.50
72883;DHT22;61017;37.812;-122.286;2022-12-08T07:29:35;16.70;79.50
72883;DHT22;61017;37.812;-122.286;2022-12-08T07:31:25;16.70;79.50
72883;DHT22;61017;37.812;-122.286;2022-12-08T07:33:16;16.70;80.30
72883;DHT22;61017;37.812;-122.286;2022-12-08T07:35:07;16.70;79.50
72883;DHT22;61017;37.812;-122.286;2022-12-08T07:36:57;16.70;79.70
72883;DHT22;61017;37.812;-122.286;2022-12-08T07:38:47;16.70;79.60
72883;DHT22;61017;37.812;-122.286;2022-12-08T07:40:38;16.70;79.50
72883;DHT22;61017;37.812;-122.286;2022-12-08T07:42:28;16.70;79.60
72883;DHT22;61017;37.812;-122.286;2022-12-08T07:44:19;16.60;79.50
72883;DHT22;61017;37.812;-122.286;2022-12-08T07:46:16;16.60;79.60
72883;DHT22;61017;37.812;-122.286;2022-12-08T07:48:07;16.60;79.50
72883;DHT22;61017;37.812;-122.286;2022-12-08T07:49:57;16.60;79.50
72883;DHT22;61017;37.812;-122.286;2022-12-08T07:51:46;16.60;79.40
72883;DHT22;61017;37.812;-122.286;2022-12-08T07:53:38;16.60;79.40
72883;DHT22;61017;37.812;-122.286;2022-12-08T07:55:29;16.60;79.30
72883;DHT22;61017;37.812;-122.286;2022-12-08T07:57:19;16.60;79.20
72883;DHT22;61017;37.812;-122.286;2022-12-08T07:59:09;16.60;79.10
72883;DHT22;61017;37.812;-122.286;2022-12-08T08:00:59;16.60;78.90
72883;DHT22;61017;37.812;-122.286;2022-12-08T08:02:50;16.60;78.50
72883;DHT22;61017;37.812;-122.286;2022-12-08T08:04:41;16.50;78.40
72883;DHT22;61017;37.812;-122.286;2022-12-08T08:06:32;16.50;78.30
72883;DHT22;61017;37.812;-122.286;2022-12-08T08:08:22;16.50;78.30
72883;DHT22;61017;37.812;-122.286;2022-12-08T08:10:13;16.50;78.90
72883;DHT22;61017;37.812;-122.286;2022-12-08T08:12:03;16.50;78.40
72883;DHT22;61017;37.812;-122.286;2022-12-08T08:13:55;16.50;78.50
72883;DHT22;61017;37.812;-122.286;2022-12-08T08:15:45;16.50;78.40
72883;DHT22;61017;37.812;-122.286;2022-12-08T08:17:36;16.50;78.40
72883;DHT22;61017;37.812;-122.286;2022-12-08T08:19:26;16.50;78.30
72883;DHT22;61017;37.812;-122.286;2022-12-08T08:21:19;16.50;78.30
72883;DHT22;61017;37.812;-122.286;2022-12-08T08:23:09;16.50;78.40
72883;DHT22;61017;37.812;-122.286;2022-12-08T08:25:00;16.50;78.30
72883;DHT22;61017;37.812;-122.286;2022-12-08T08:26:50;16.50;78.30
72883;DHT22;61017;37.812;-122.286;2022-12-08T08:28:40;16.50;78.20
72883;DHT22;61017;37.812;-122.286;2022-12-08T08:30:31;16.50;78.30
72883;DHT22;61017;37.812;-122.286;2022-12-08T08:32:20;16.50;78.30
72883;DHT22;61017;37.812;-122.286;2022-12-08T08:34:11;16.50;78.40
72883;DHT22;61017;37.812;-122.286;2022-12-08T08:36:01;16.50;78.40
72883;DHT22;61017;37.812;-122.286;2022-12-08T08:37:54;16.50;78.40
72883;DHT22;61017;37.812;-122.286;2022-12-08T08:39:44;16.50;78.40
72883;DHT22;61017;37.812;-122.286;2022-12-08T08:41:39;16.60;78.60
72883;DHT22;61017;37.812;-122.286;2022-12-08T08:43:30;16.60;78.50
72883;DHT22;61017;37.812;-122.286;2022-12-08T08:45:20;16.60;78.80
72883;DHT22;61017;37.812;-122.286;2022-12-08T08:47:11;16.60;78.60
72883;DHT22;61017;37.812;-122.286;2022-12-08T08:49:01;16.70;78.50
72883;DHT22;61017;37.812;-122.286;2022-12-08T08:50:51;16.70;78.80
72883;DHT22;61017;37.812;-122.286;2022-12-08T08:52:42;16.60;78.80
72883;DHT22;61017;37.812;-122.286;2022-12-08T08:54:32;16.70;78.90
72883;DHT22;61017;37.812;-122.286;2022-12-08T08:56:24;16.60;78.80
72883;DHT22;61017;37.812;-122.286;2022-12-08T08:58:14;16.70;79.00
72883;DHT22;61017;37.812;-122.286;2022-12-08T09:00:05;16.60;78.90
72883;DHT22;61017;37.812;-122.286;2022-12-08T09:01:57;16.70;79.10
72883;DHT22;61017;37.812;-122.286;2022-12-08T09:03:47;16.70;79.00
72883;DHT22;61017;37.812;-122.286;2022-12-08T09:05:38;16.70;79.10
72883;DHT22;61017;37.812;-122.286;2022-12-08T09:07:28;16.70;79.10
72883;DHT22;61017;37.812;-122.286;2022-12-08T09:09:18;16.70;79.00
72883;DHT22;61017;37.812;-122.286;2022-12-08T09:11:08;16.70;79.00
72883;DHT22;61017;37.812;-122.286;2022-12-08T09:12:59;16.70;79.00
72883;DHT22;61017;37.812;-122.286;2022-12-08T09:14:49;16.70;79.00
72883;DHT22;61017;37.812;-122.286;2022-12-08T09:16:39;16.70;79.10
72883;DHT22;61017;37.812;-122.286;2022-12-08T09:18:29;16.70;79.10
72883;DHT22;61017;37.812;-122.286;2022-12-08T09:20:20;16.70;79.10
72883;DHT22;61017;37.812;-122.286;2022-12-08T09:22:10;16.70;79.30
72883;DHT22;61017;37.812;-122.286;2022-12-08T09:24:01;16.70;79.40
72883;DHT22;61017;37.812;-122.286;2022-12-08T09:25:52;16.70;79.50
72883;DHT22;61017;37.812;-122.286;2022-12-08T09:27:43;16.70;79.70
72883;DHT22;61017;37.812;-122.286;2022-12-08T09:29:34;16.70;79.90
72883;DHT22;61017;37.812;-122.286;2022-12-08T09:31:24;16.70;79.80
72883;DHT22;61017;37.812;-122.286;2022-12-08T09:33:14;16.70;80.00
72883;DHT22;61017;37.812;-122.286;2022-12-08T09:35:05;16.70;80.10
72883;DHT22;61017;37.812;-122.286;2022-12-08T09:36:56;16.70;80.20
72883;DHT22;61017;37.812;-122.286;2022-12-08T09:38:47;16.70;80.30
72883;DHT22;61017;37.812;-122.286;2022-12-08T09:40:48;16.70;80.30
72883;DHT22;61017;37.812;-122.286;2022-12-08T09:45:04;16.70;80.50
72883;DHT22;61017;37.812;-122.286;2022-12-08T09:46:55;16.70;80.60
72883;DHT22;61017;37.812;-122.286;2022-12-08T09:48:56;16.70;80.70
72883;DHT22;61017;37.812;-122.286;2022-12-08T09:50:57;16.70;80.70
72883;DHT22;61017;37.812;-122.286;2022-12-08T09:55:24;16.70;80.90
72883;DHT22;61017;37.812;-122.286;2022-12-08T09:57:19;16.70;80.90
72883;DHT22;61017;37.812;-122.286;2022-12-08T09:59:29;16.70;81.00
72883;DHT22;61017;37.812;-122.286;2022-12-08T10:01:22;16.60;80.90
72883;DHT22;61017;37.812;-122.286;2022-12-08T10:03:12;16.60;81.00
72883;DHT22;61017;37.812;-122.286;2022-12-08T10:05:05;16.70;81.10
72883;DHT22;61017;37.812;-122.286;2022-12-08T10:07:12;16.60;81.00
72883;DHT22;61017;37.812;-122.286;2022-12-08T10:09:40;16.70;81.10
72883;DHT22;61017;37.812;-122.286;2022-12-08T10:12:06;16.70;81.30
72883;DHT22;61017;37.812;-122.286;2022-12-08T10:14:29;16.70;80.90
72883;DHT22;61017;37.812;-122.286;2022-12-08T10:16:35;16.70;80.70
72883;DHT22;61017;37.812;-122.286;2022-12-08T10:18:33;16.80;79.80
72883;DHT22;61017;37.812;-122.286;2022-12-08T10:20:34;16.80;79.30
72883;DHT22;61017;37.812;-122.286;2022-12-08T10:22:28;16.70;78.90
72883;DHT22;61017;37.812;-122.286;2022-12-08T10:24:49;16.70;78.70
72883;DHT22;61017;37.812;-122.286;2022-12-08T10:26:42;16.70;78.50
72883;DHT22;61017;37.812;-122.286;2022-12-08T10:28:33;16.70;78.20
72883;DHT22;61017;37.812;-122.286;2022-12-08T10:30:24;16.70;78.10
72883;DHT22;61017;37.812;-122.286;2022-12-08T10:32:21;16.80;78.00
72883;DHT22;61017;37.812;-122.286;2022-12-08T10:34:18;16.80;77.80
72883;DHT22;61017;37.812;-122.286;2022-12-08T10:36:09;16.80;77.70
72883;DHT22;61017;37.812;-122.286;2022-12-08T10:38:01;16.90;77.50
72883;DHT22;61017;37.812;-122.286;2022-12-08T10:40:01;16.90;77.20
72883;DHT22;61017;37.812;-122.286;2022-12-08T10:41:52;16.90;77.10
72883;DHT22;61017;37.812;-122.286;2022-12-08T10:45:45;16.90;77.00
72883;DHT22;61017;37.812;-122.286;2022-12-08T10:47:40;16.90;77.00
72883;DHT22;61017;37.812;-122.286;2022-12-08T10:49:31;16.90;77.20
72883;DHT22;61017;37.812;-122.286;2022-12-08T10:51:34;16.90;77.60
72883;DHT22;61017;37.812;-122.286;2022-12-08T10:53:28;16.90;77.90
72883;DHT22;61017;37.812;-122.286;2022-12-08T10:55:20;16.90;78.00
72883;DHT22;61017;37.812;-122.286;2022-12-08T10:57:19;16.80;77.90
72883;DHT22;61017;37.812;-122.286;2022-12-08T10:59:14;16.80;77.90
72883;DHT22;61017;37.812;-122.286;2022-12-08T11:01:27;16.80;78.10
72883;DHT22;61017;37.812;-122.286;2022-12-08T11:03:26;16.80;78.10
72883;DHT22;61017;37.812;-122.286;2022-12-08T11:05:18;16.90;78.30
72883;DHT22;61017;37.812;-122.286;2022-12-08T11:07:09;16.90;78.40
72883;DHT22;61017;37.812;-122.286;2022-12-08T11:09:44;16.90;78.20
72883;DHT22;61017;37.812;-122.286;2022-12-08T11:11:14;16.90;78.00
72883;DHT22;61017;37.812;-122.286;2022-12-08T11:13:10;16.90;77.90
72883;DHT22;61017;37.812;-122.286;2022-12-08T11:15:03;16.90;77.80
72883;DHT22;61017;37.812;-122.286;2022-12-08T11:17:07;16.90;77.80
72883;DHT22;61017;37.812;-122.286;2022-12-08T11:18:57;16.90;77.60
72883;DHT22;61017;37.812;-122.286;2022-12-08T11:21:01;16.90;77.50
72883;DHT22;61017;37.812;-122.286;2022-12-08T11:22:55;16.90;77.50
72883;DHT22;61017;37.812;-122.286;2022-12-08T11:24:45;16.80;77.20
72883;DHT22;61017;37.812;-122.286;2022-12-08T11:26:36;16.80;77.50
72883;DHT22;61017;37.812;-122.286;2022-12-08T11:28:27;16.80;77.30
72883;DHT22;61017;37.812;-122.286;2022-12-08T11:30:23;16.80;77.40
72883;DHT22;61017;37.812;-122.286;2022-12-08T11:32:14;16.80;77.50
72883;DHT22;61017;37.812;-122.286;2022-12-08T11:34:04;16.80;77.50
72883;DHT22;61017;37.812;-122.286;2022-12-08T11:36:08;16.80;77.60
72883;DHT22;61017;37.812;-122.286;2022-12-08T11:38:13;16.80;77.60
72883;DHT22;61017;37.812;-122.286;2022-12-08T11:40:19;16.90;77.70
72883;DHT22;61017;37.812;-122.286;2022-12-08T11:42:12;16.90;77.50
72883;DHT22;61017;37.812;-122.286;2022-12-08T11:46:42;16.90;77.20
72883;DHT22;61017;37.812;-122.286;2022-12-08T11:48:49;16.90;77.20
72883;DHT22;61017;37.812;-122.286;2022-12-08T11:50:49;16.90;77.10
72883;DHT22;61017;37.812;-122.286;2022-12-08T11:52:54;16.90;77.10
72883;DHT22;61017;37.812;-122.286;2022-12-08T11:54:50;16.80;76.80
72883;DHT22;61017;37.812;-122.286;2022-12-08T11:56:46;16.80;76.80
72883;DHT22;61017;37.812;-122.286;2022-12-08T11:58:45;16.80;76.80
72883;DHT22;61017;37.812;-122.286;2022-12-08T12:00:36;16.80;76.90
72883;DHT22;61017;37.812;-122.286;2022-12-08T12:02:28;16.80;77.00
72883;DHT22;61017;37.812;-122.286;2022-12-08T12:04:27;16.80;77.00
72883;DHT22;61017;37.812;-122.286;2022-12-08T12:08:49;16.90;76.90
72883;DHT22;61017;37.812;-122.286;2022-12-08T12:12:54;16.90;76.70
72883;DHT22;61017;37.812;-122.286;2022-12-08T12:19:15;16.90;76.60
72883;DHT22;61017;37.812;-122.286;2022-12-08T12:23:43;16.80;76.60
72883;DHT22;61017;37.812;-122.286;2022-12-08T12:25:36;16.80;76.60
72883;DHT22;61017;37.812;-122.286;2022-12-08T12:27:28;16.80;76.80
72883;DHT22;61017;37.812;-122.286;2022-12-08T12:29:20;16.80;76.80
72883;DHT22;61017;37.812;-122.286;2022-12-08T12:31:15;16.80;76.80
72883;DHT22;61017;37.812;-122.286;2022-12-08T12:33:11;16.90;77.00
72883;DHT22;61017;37.812;-122.286;2022-12-08T12:35:04;16.90;77.00
72883;DHT22;61017;37.812;-122.286;2022-12-08T12:37:15;16.90;76.80
72883;DHT22;61017;37.812;-122.286;2022-12-08T12:39:11;16.90;76.70
72883;DHT22;61017;37.812;-122.286;2022-12-08T12:41:03;16.90;77.00
72883;DHT22;61017;37.812;-122.286;2022-12-08T12:44:45;16.90;76.60
72883;DHT22;61017;37.812;-122.286;2022-12-08T12:46:41;16.90;76.60
72883;DHT22;61017;37.812;-122.286;2022-12-08T12:48:53;16.90;76.60
72883;DHT22;61017;37.812;-122.286;2022-12-08T12:55:26;16.80;76.50
72883;DHT22;61017;37.812;-122.286;2022-12-08T12:57:22;16.80;76.60
72883;DHT22;61017;37.812;-122.286;2022-12-08T13:01:52;16.80;76.80
72883;DHT22;61017;37.812;-122.286;2022-12-08T13:03:46;16.90;76.80
72883;DHT22;61017;37.812;-122.286;2022-12-08T13:05:48;16.90;76.80
72883;DHT22;61017;37.812;-122.286;2022-12-08T13:08:05;16.90;76.80
72883;DHT22;61017;37.812;-122.286;2022-12-08T13:12:22;16.90;76.50
72883;DHT22;61017;37.812;-122.286;2022-12-08T13:14:33;16.90;76.50
72883;DHT22;61017;37.812;-122.286;2022-12-08T13:16:26;16.90;76.50
72883;DHT22;61017;37.812;-122.286;2022-12-08T13:18:24;16.90;76.40
72883;DHT22;61017;37.812;-122.286;2022-12-08T13:20:23;16.80;76.30
72883;DHT22;61017;37.812;-122.286;2022-12-08T13:24:41;16.80;76.20
72883;DHT22;61017;37.812;-122.286;2022-12-08T13:26:31;16.80;76.10
72883;DHT22;61017;37.812;-122.286;2022-12-08T13:28:28;16.80;76.10
72883;DHT22;61017;37.812;-122.286;2022-12-08T13:30:51;16.80;76.10
72883;DHT22;61017;37.812;-122.286;2022-12-08T13:32:55;16.80;76.10
72883;DHT22;61017;37.812;-122.286;2022-12-08T13:34:54;16.80;76.10
72883;DHT22;61017;37.812;-122.286;2022-12-08T13:38:58;16.70;75.90
72883;DHT22;61017;37.812;-122.286;2022-12-08T13:40:48;16.70;75.90
72883;DHT22;61017;37.812;-122.286;2022-12-08T13:43:04;16.70;75.80
72883;DHT22;61017;37.812;-122.286;2022-12-08T13:47:00;16.70;75.80
72883;DHT22;61017;37.812;-122.286;2022-12-08T13:48:53;16.70;75.80
72883;DHT22;61017;37.812;-122.286;2022-12-08T13:51:21;16.70;75.80
72883;DHT22;61017;37.812;-122.286;2022-12-08T13:55:41;16.70;75.80
72883;DHT22;61017;37.812;-122.286;2022-12-08T13:57:34;16.60;75.60
72883;DHT22;61017;37.812;-122.286;2022-12-08T13:59:31;16.60;75.60
72883;DHT22;61017;37.812;-122.286;2022-12-08T14:01:22;16.60;75.50
72883;DHT22;61017;37.812;-122.286;2022-12-08T14:03:13;16.60;75.50
72883;DHT22;61017;37.812;-122.286;2022-12-08T14:05:04;16.60;75.40
72883;DHT22;61017;37.812;-122.286;2022-12-08T14:06:59;16.60;75.40
72883;DHT22;61017;37.812;-122.286;2022-12-08T14:08:59;16.60;75.40
72883;DHT22;61017;37.812;-122.286;2022-12-08T14:10:56;16.60;75.50
72883;DHT22;61017;37.812;-122.286;2022-12-08T14:12:52;16.60;75.30
72883;DHT22;61017;37.812;-122.286;2022-12-08T14:14:46;16.60;75.30
72883;DHT22;61017;37.812;-122.286;2022-12-08T14:16:42;16.50;75.20
72883;DHT22;61017;37.812;-122.286;2022-12-08T14:18:38;16.50;75.20
72883;DHT22;61017;37.812;-122.286;2022-12-08T14:20:30;16.50;75.20
72883;DHT22;61017;37.812;-122.286;2022-12-08T14:22:20;16.50;75.20
72883;DHT22;61017;37.812;-122.286;2022-12-08T14:24:10;16.50;75.10
72883;DHT22;61017;37.812;-122.286;2022-12-08T14:26:02;16.50;75.10
72883;DHT22;61017;37.812;-122.286;2022-12-08T14:28:02;16.50;75.00
72883;DHT22;61017;37.812;-122.286;2022-12-08T14:29:56;16.50;75.70
72883;DHT22;61017;37.812;-122.286;2022-12-08T14:31:47;16.50;74.80
72883;DHT22;61017;37.812;-122.286;2022-12-08T14:33:38;16.50;74.80
72883;DHT22;61017;37.812;-122.286;2022-12-08T14:35:31;16.50;74.70
72883;DHT22;61017;37.812;-122.286;2022-12-08T14:37:24;16.40;74.70